OAL063 LICR-LGAV
Flight info
| Callsign | OAL063 |
|---|---|
| Flight time | 1h 13m |
| Altitude | 49000 |
| Route | PAZZE DCT CDC DCT TOMGI DCT RUTOM UN604 RILIN |
| Aircraft | C750/M-SBDE3FGHRWXY/S |
Departure
| Time | 2026-05-06 16:16 |
|---|---|
| Airport | Reggio Calabria Airport (LICR) |
Arrival
| Time | 2026-05-06 17:30 |
|---|---|
| Airport | Athens Eleftherios Venizelos International Airport (LGAV) |
| Time | Latitude | Longitude | Altitude | Speed | Heading |
|---|---|---|---|---|---|
| 2026-05-06 15:51 | 38.07376 | 15.65166 | 46 ft | 0 kts | 61° |
| 2026-05-06 16:05 | 38.07381 | 15.65168 | 46 ft | 2 kts | 20° |
| 2026-05-06 16:06 | 38.07396 | 15.65149 | 46 ft | 6 kts | 314° |
| 2026-05-06 16:06 | 38.07422 | 15.65115 | 46 ft | 9 kts | 313° |
| 2026-05-06 16:06 | 38.07424 | 15.65111 | 46 ft | 0 kts | 303° |
| 2026-05-06 16:06 | 38.07424 | 15.65109 | 46 ft | 0 kts | 292° |
| 2026-05-06 16:07 | 38.07425 | 15.65106 | 46 ft | 0 kts | 291° |
| 2026-05-06 16:07 | 38.07425 | 15.65096 | 46 ft | 3 kts | 265° |
| 2026-05-06 16:07 | 38.07418 | 15.65080 | 46 ft | 0 kts | 242° |
| 2026-05-06 16:13 | 38.07417 | 15.65077 | 46 ft | 3 kts | 242° |
| 2026-05-06 16:13 | 38.07401 | 15.65037 | 46 ft | 6 kts | 242° |
| 2026-05-06 16:13 | 38.07416 | 15.64969 | 48 ft | 12 kts | 327° |
| 2026-05-06 16:14 | 38.07483 | 15.64923 | 52 ft | 10 kts | 333° |
| 2026-05-06 16:14 | 38.07552 | 15.64879 | 52 ft | 12 kts | 333° |
| 2026-05-06 16:14 | 38.07632 | 15.64826 | 57 ft | 14 kts | 333° |
| 2026-05-06 16:14 | 38.07725 | 15.64765 | 58 ft | 16 kts | 332° |
| 2026-05-06 16:15 | 38.07829 | 15.64698 | 59 ft | 16 kts | 333° |
| 2026-05-06 16:15 | 38.07919 | 15.64668 | 66 ft | 10 kts | 329° |
| 2026-05-06 16:15 | 38.07900 | 15.64652 | 67 ft | 6 kts | 156° |
| 2026-05-06 16:15 | 38.07894 | 15.64656 | 65 ft | 2 kts | 153° |
| 2026-05-06 16:16 | 38.07747 | 15.64751 | 60 ft | 69 kts | 150° |
| 2026-05-06 16:16 | 38.07027 | 15.65228 | 129 ft | 142 kts | 155° |
| 2026-05-06 16:16 | 38.06081 | 15.65819 | 589 ft | 163 kts | 158° |
| 2026-05-06 16:16 | 38.04935 | 15.66375 | 963 ft | 189 kts | 162° |
| 2026-05-06 16:17 | 38.03911 | 15.67534 | 1505 ft | 215 kts | 120° |
| 2026-05-06 16:17 | 38.03843 | 15.69406 | 2279 ft | 223 kts | 74° |
| 2026-05-06 16:17 | 38.04865 | 15.70824 | 3180 ft | 222 kts | 30° |
| 2026-05-06 16:17 | 38.06307 | 15.71512 | 4256 ft | 223 kts | 20° |
| 2026-05-06 16:18 | 38.07774 | 15.72172 | 5370 ft | 225 kts | 20° |
| 2026-05-06 16:18 | 38.09105 | 15.73206 | 6328 ft | 231 kts | 51° |
| 2026-05-06 16:18 | 38.09662 | 15.75096 | 7188 ft | 232 kts | 84° |
| 2026-05-06 16:18 | 38.09825 | 15.77139 | 8187 ft | 234 kts | 86° |
| 2026-05-06 16:19 | 38.10074 | 15.79191 | 9314 ft | 236 kts | 81° |
| 2026-05-06 16:19 | 38.10394 | 15.81231 | 10373 ft | 235 kts | 79° |
| 2026-05-06 16:19 | 38.10703 | 15.83262 | 11335 ft | 233 kts | 81° |
| 2026-05-06 16:19 | 38.10993 | 15.85356 | 11898 ft | 253 kts | 81° |
| 2026-05-06 16:20 | 38.11325 | 15.87670 | 12215 ft | 281 kts | 80° |
| 2026-05-06 16:20 | 38.11696 | 15.90236 | 12490 ft | 309 kts | 80° |
| 2026-05-06 16:20 | 38.12097 | 15.93034 | 12759 ft | 335 kts | 79° |
| 2026-05-06 16:20 | 38.12523 | 15.96024 | 12937 ft | 361 kts | 80° |
| 2026-05-06 16:21 | 38.12985 | 15.99262 | 13096 ft | 383 kts | 79° |
| 2026-05-06 16:21 | 38.13462 | 16.02603 | 13852 ft | 385 kts | 80° |
| 2026-05-06 16:21 | 38.13943 | 16.05975 | 14463 ft | 390 kts | 79° |
| 2026-05-06 16:21 | 38.14428 | 16.09388 | 15118 ft | 395 kts | 79° |
| 2026-05-06 16:22 | 38.14915 | 16.12838 | 15776 ft | 399 kts | 80° |
| 2026-05-06 16:22 | 38.15409 | 16.16333 | 16471 ft | 403 kts | 80° |
| 2026-05-06 16:22 | 38.15906 | 16.19860 | 17178 ft | 408 kts | 80° |
| 2026-05-06 16:22 | 38.16410 | 16.23438 | 17877 ft | 413 kts | 80° |
| 2026-05-06 16:23 | 38.16915 | 16.27044 | 18574 ft | 417 kts | 80° |
| 2026-05-06 16:23 | 38.17427 | 16.30699 | 19234 ft | 421 kts | 80° |
| 2026-05-06 16:23 | 38.17942 | 16.34385 | 19913 ft | 425 kts | 80° |
| 2026-05-06 16:23 | 38.18459 | 16.38098 | 20605 ft | 429 kts | 80° |
| 2026-05-06 16:24 | 38.18975 | 16.41813 | 21287 ft | 434 kts | 80° |
| 2026-05-06 16:24 | 38.19502 | 16.45605 | 21965 ft | 438 kts | 80° |
| 2026-05-06 16:24 | 38.20038 | 16.49483 | 22667 ft | 442 kts | 80° |
| 2026-05-06 16:24 | 38.20565 | 16.53306 | 23342 ft | 447 kts | 80° |
| 2026-05-06 16:25 | 38.21105 | 16.57226 | 23949 ft | 451 kts | 80° |
| 2026-05-06 16:25 | 38.21646 | 16.61170 | 24514 ft | 455 kts | 80° |
| 2026-05-06 16:25 | 38.22190 | 16.65143 | 25084 ft | 458 kts | 79° |
| 2026-05-06 16:25 | 38.22738 | 16.69157 | 25632 ft | 462 kts | 79° |
| 2026-05-06 16:26 | 38.23290 | 16.73205 | 26186 ft | 466 kts | 79° |
| 2026-05-06 16:26 | 38.23843 | 16.77279 | 26737 ft | 470 kts | 79° |
| 2026-05-06 16:26 | 38.24400 | 16.81390 | 27284 ft | 474 kts | 79° |
| 2026-05-06 16:26 | 38.24961 | 16.85540 | 27828 ft | 478 kts | 79° |
| 2026-05-06 16:27 | 38.25524 | 16.89724 | 28373 ft | 482 kts | 79° |
| 2026-05-06 16:27 | 38.26091 | 16.93942 | 28916 ft | 485 kts | 78° |
| 2026-05-06 16:27 | 38.26662 | 16.98197 | 29450 ft | 489 kts | 78° |
| 2026-05-06 16:27 | 38.27234 | 17.02483 | 29973 ft | 493 kts | 78° |
| 2026-05-06 16:28 | 38.27809 | 17.06799 | 30436 ft | 497 kts | 78° |
| 2026-05-06 16:28 | 38.28387 | 17.11156 | 30885 ft | 500 kts | 78° |
| 2026-05-06 16:28 | 38.28965 | 17.15524 | 31471 ft | 500 kts | 78° |
| 2026-05-06 16:28 | 38.29538 | 17.19872 | 32160 ft | 497 kts | 78° |
| 2026-05-06 16:29 | 38.30104 | 17.24167 | 32800 ft | 496 kts | 78° |
| 2026-05-06 16:29 | 38.30680 | 17.28551 | 33467 ft | 495 kts | 77° |
| 2026-05-06 16:29 | 38.31238 | 17.32812 | 34127 ft | 494 kts | 77° |
| 2026-05-06 16:29 | 38.31800 | 17.37122 | 34740 ft | 492 kts | 77° |
| 2026-05-06 16:30 | 38.32358 | 17.41414 | 35344 ft | 491 kts | 78° |
| 2026-05-06 16:30 | 38.32733 | 17.44305 | 35741 ft | 490 kts | 78° |
| 2026-05-06 16:30 | 38.33466 | 17.49968 | 36498 ft | 489 kts | 78° |
| 2026-05-06 16:30 | 38.34016 | 17.54233 | 37060 ft | 488 kts | 78° |
| 2026-05-06 16:31 | 38.34564 | 17.58500 | 37604 ft | 488 kts | 78° |
| 2026-05-06 16:31 | 38.35112 | 17.62766 | 38150 ft | 487 kts | 78° |
| 2026-05-06 16:31 | 38.35655 | 17.67022 | 38681 ft | 487 kts | 78° |
| 2026-05-06 16:31 | 38.36198 | 17.71282 | 39097 ft | 488 kts | 78° |
| 2026-05-06 16:32 | 38.36742 | 17.75560 | 39513 ft | 488 kts | 78° |
| 2026-05-06 16:32 | 38.37282 | 17.79826 | 39941 ft | 488 kts | 79° |
| 2026-05-06 16:32 | 38.37821 | 17.84093 | 40363 ft | 488 kts | 79° |
| 2026-05-06 16:32 | 38.38358 | 17.88364 | 40794 ft | 488 kts | 79° |
| 2026-05-06 16:33 | 38.38895 | 17.92641 | 41234 ft | 488 kts | 79° |
| 2026-05-06 16:33 | 38.39423 | 17.96865 | 41669 ft | 488 kts | 79° |
| 2026-05-06 16:33 | 38.39956 | 18.01135 | 42107 ft | 488 kts | 79° |
| 2026-05-06 16:34 | 38.41018 | 18.09689 | 42977 ft | 489 kts | 79° |
| 2026-05-06 16:34 | 38.41548 | 18.13978 | 43409 ft | 489 kts | 79° |
| 2026-05-06 16:34 | 38.42075 | 18.18253 | 43843 ft | 489 kts | 79° |
| 2026-05-06 16:34 | 38.42601 | 18.22533 | 44281 ft | 488 kts | 79° |
| 2026-05-06 16:35 | 38.43125 | 18.26816 | 44703 ft | 488 kts | 79° |
| 2026-05-06 16:35 | 38.43649 | 18.31107 | 45064 ft | 488 kts | 79° |
| 2026-05-06 16:35 | 38.44169 | 18.35377 | 45410 ft | 488 kts | 79° |
| 2026-05-06 16:35 | 38.44688 | 18.39659 | 45740 ft | 488 kts | 79° |
| 2026-05-06 16:36 | 38.45206 | 18.43938 | 46043 ft | 488 kts | 79° |
| 2026-05-06 16:36 | 38.45721 | 18.48213 | 46335 ft | 488 kts | 79° |
| 2026-05-06 16:36 | 38.46235 | 18.52490 | 46628 ft | 487 kts | 79° |
| 2026-05-06 16:36 | 38.46747 | 18.56763 | 46899 ft | 487 kts | 79° |
| 2026-05-06 16:37 | 38.47257 | 18.61040 | 47167 ft | 487 kts | 79° |
| 2026-05-06 16:37 | 38.47766 | 18.65315 | 47416 ft | 487 kts | 79° |
| 2026-05-06 16:37 | 38.48267 | 18.69532 | 47660 ft | 487 kts | 79° |
| 2026-05-06 16:37 | 38.48778 | 18.73854 | 47912 ft | 486 kts | 79° |
| 2026-05-06 16:38 | 38.49275 | 18.78076 | 48155 ft | 486 kts | 79° |
| 2026-05-06 16:38 | 38.49778 | 18.82351 | 48376 ft | 486 kts | 79° |
| 2026-05-06 16:38 | 38.50278 | 18.86623 | 48597 ft | 486 kts | 79° |
| 2026-05-06 16:38 | 38.50776 | 18.90886 | 48822 ft | 485 kts | 79° |
| 2026-05-06 16:39 | 38.51273 | 18.95148 | 49027 ft | 483 kts | 79° |
| 2026-05-06 16:39 | 38.51437 | 19.03731 | 49061 ft | 494 kts | 97° |
| 2026-05-06 16:40 | 38.49965 | 19.12379 | 49097 ft | 503 kts | 105° |
| 2026-05-06 16:40 | 38.48406 | 19.21164 | 49090 ft | 512 kts | 99° |
| 2026-05-06 16:41 | 38.47110 | 19.30169 | 49086 ft | 520 kts | 102° |
| 2026-05-06 16:41 | 38.45541 | 19.39250 | 49098 ft | 527 kts | 101° |
| 2026-05-06 16:42 | 38.44137 | 19.48461 | 49098 ft | 530 kts | 101° |
| 2026-05-06 16:42 | 38.42585 | 19.57678 | 49094 ft | 530 kts | 101° |
| 2026-05-06 16:43 | 38.41130 | 19.66810 | 49091 ft | 527 kts | 101° |
| 2026-05-06 16:43 | 38.39617 | 19.75930 | 49085 ft | 525 kts | 101° |
| 2026-05-06 16:44 | 38.38123 | 19.85067 | 49087 ft | 527 kts | 101° |
| 2026-05-06 16:44 | 38.36601 | 19.94224 | 49082 ft | 528 kts | 102° |
| 2026-05-06 16:45 | 38.35084 | 20.03355 | 49091 ft | 527 kts | 101° |
| 2026-05-06 16:45 | 38.33554 | 20.12495 | 49098 ft | 528 kts | 102° |
| 2026-05-06 16:46 | 38.32016 | 20.21648 | 49101 ft | 528 kts | 102° |
| 2026-05-06 16:46 | 38.30675 | 20.30843 | 49101 ft | 528 kts | 98° |
| 2026-05-06 16:47 | 38.29540 | 20.40026 | 49102 ft | 528 kts | 98° |
| 2026-05-06 16:47 | 38.28333 | 20.49245 | 49106 ft | 527 kts | 98° |
| 2026-05-06 16:48 | 38.27162 | 20.58452 | 49108 ft | 528 kts | 98° |
| 2026-05-06 16:48 | 38.25954 | 20.67673 | 49100 ft | 529 kts | 99° |
| 2026-05-06 16:49 | 38.24753 | 20.76909 | 49098 ft | 528 kts | 99° |
| 2026-05-06 16:49 | 38.23539 | 20.86113 | 49098 ft | 528 kts | 99° |
| 2026-05-06 16:50 | 38.22320 | 20.95341 | 49092 ft | 529 kts | 99° |
| 2026-05-06 16:50 | 38.21099 | 21.04503 | 49087 ft | 529 kts | 99° |
| 2026-05-06 16:51 | 38.19865 | 21.13716 | 49089 ft | 528 kts | 99° |
| 2026-05-06 16:51 | 38.18622 | 21.22940 | 49083 ft | 529 kts | 99° |
| 2026-05-06 16:52 | 38.17370 | 21.32166 | 49082 ft | 529 kts | 99° |
| 2026-05-06 16:52 | 38.16112 | 21.41389 | 49082 ft | 530 kts | 99° |
| 2026-05-06 16:53 | 38.14763 | 21.50601 | 49083 ft | 530 kts | 101° |
| 2026-05-06 16:53 | 38.13327 | 21.59736 | 49084 ft | 530 kts | 100° |
| 2026-05-06 16:54 | 38.11956 | 21.68935 | 49085 ft | 530 kts | 101° |
| 2026-05-06 16:54 | 38.10511 | 21.78145 | 49087 ft | 531 kts | 100° |
| 2026-05-06 16:54 | 38.09813 | 21.82728 | 48723 ft | 528 kts | 100° |
| 2026-05-06 16:55 | 38.09110 | 21.87317 | 47855 ft | 531 kts | 101° |
| 2026-05-06 16:55 | 38.08634 | 21.90369 | 47220 ft | 533 kts | 101° |
| 2026-05-06 16:55 | 38.07907 | 21.94985 | 46289 ft | 533 kts | 101° |
| 2026-05-06 16:55 | 38.07183 | 21.99609 | 45360 ft | 532 kts | 101° |
| 2026-05-06 16:56 | 38.06469 | 22.04206 | 44385 ft | 529 kts | 101° |
| 2026-05-06 16:56 | 38.05753 | 22.08783 | 43259 ft | 529 kts | 100° |
| 2026-05-06 16:56 | 38.05030 | 22.13358 | 42171 ft | 527 kts | 100° |
| 2026-05-06 16:56 | 38.04311 | 22.17899 | 41141 ft | 524 kts | 100° |
| 2026-05-06 16:57 | 38.03597 | 22.22422 | 40157 ft | 522 kts | 99° |
| 2026-05-06 16:57 | 38.02887 | 22.26909 | 39517 ft | 512 kts | 99° |
| 2026-05-06 16:57 | 38.02191 | 22.31275 | 38950 ft | 502 kts | 99° |
| 2026-05-06 16:57 | 38.01503 | 22.35585 | 38288 ft | 495 kts | 98° |
| 2026-05-06 16:58 | 38.00826 | 22.39829 | 37691 ft | 488 kts | 98° |
| 2026-05-06 16:58 | 38.00153 | 22.44036 | 37066 ft | 483 kts | 98° |
| 2026-05-06 16:58 | 37.99484 | 22.48195 | 36456 ft | 480 kts | 97° |
| 2026-05-06 16:58 | 37.98828 | 22.52276 | 35820 ft | 477 kts | 97° |
| 2026-05-06 16:59 | 37.98164 | 22.56386 | 35199 ft | 473 kts | 96° |
| 2026-05-06 16:59 | 37.97505 | 22.60452 | 34589 ft | 468 kts | 96° |
| 2026-05-06 16:59 | 37.96854 | 22.64470 | 34002 ft | 462 kts | 95° |
| 2026-05-06 16:59 | 37.96287 | 22.68374 | 33926 ft | 440 kts | 91° |
| 2026-05-06 17:00 | 37.95822 | 22.72199 | 33443 ft | 442 kts | 92° |
| 2026-05-06 17:00 | 37.95308 | 22.76069 | 32840 ft | 448 kts | 93° |
| 2026-05-06 17:00 | 37.94786 | 22.79977 | 32243 ft | 451 kts | 93° |
| 2026-05-06 17:00 | 37.94287 | 22.83908 | 31645 ft | 451 kts | 93° |
| 2026-05-06 17:01 | 37.93728 | 22.87811 | 31021 ft | 452 kts | 99° |
| 2026-05-06 17:01 | 37.92457 | 22.91476 | 30433 ft | 458 kts | 118° |
| 2026-05-06 17:01 | 37.90436 | 22.94581 | 29812 ft | 457 kts | 137° |
| 2026-05-06 17:01 | 37.87863 | 22.96839 | 29252 ft | 447 kts | 154° |
| 2026-05-06 17:02 | 37.85138 | 22.98555 | 28760 ft | 440 kts | 156° |
| 2026-05-06 17:02 | 37.82391 | 23.00236 | 28184 ft | 438 kts | 156° |
| 2026-05-06 17:02 | 37.79660 | 23.01927 | 27610 ft | 435 kts | 155° |
| 2026-05-06 17:02 | 37.76963 | 23.03624 | 27044 ft | 430 kts | 155° |
| 2026-05-06 17:03 | 37.74292 | 23.05295 | 26480 ft | 425 kts | 155° |
| 2026-05-06 17:03 | 37.71653 | 23.06927 | 25947 ft | 421 kts | 155° |
| 2026-05-06 17:03 | 37.69035 | 23.08546 | 25408 ft | 417 kts | 155° |
| 2026-05-06 17:03 | 37.66454 | 23.10152 | 24877 ft | 412 kts | 155° |
| 2026-05-06 17:04 | 37.63885 | 23.11750 | 24347 ft | 408 kts | 155° |
| 2026-05-06 17:04 | 37.61349 | 23.13321 | 23824 ft | 404 kts | 155° |
| 2026-05-06 17:04 | 37.58833 | 23.14877 | 23255 ft | 400 kts | 155° |
| 2026-05-06 17:04 | 37.56357 | 23.16409 | 22749 ft | 394 kts | 155° |
| 2026-05-06 17:05 | 37.53913 | 23.17921 | 22245 ft | 389 kts | 155° |
| 2026-05-06 17:05 | 37.51573 | 23.19500 | 21709 ft | 386 kts | 146° |
| 2026-05-06 17:05 | 37.49699 | 23.21877 | 21191 ft | 380 kts | 123° |
| 2026-05-06 17:05 | 37.48577 | 23.24815 | 20727 ft | 369 kts | 103° |
| 2026-05-06 17:06 | 37.48265 | 23.27952 | 20266 ft | 356 kts | 83° |
| 2026-05-06 17:06 | 37.48474 | 23.31026 | 19857 ft | 351 kts | 79° |
| 2026-05-06 17:06 | 37.48724 | 23.34071 | 19390 ft | 348 kts | 79° |
| 2026-05-06 17:06 | 37.48964 | 23.37101 | 18929 ft | 347 kts | 79° |
| 2026-05-06 17:07 | 37.49190 | 23.40117 | 18468 ft | 345 kts | 80° |
| 2026-05-06 17:07 | 37.49415 | 23.43112 | 17976 ft | 341 kts | 80° |
| 2026-05-06 17:07 | 37.49642 | 23.46060 | 17529 ft | 335 kts | 80° |
| 2026-05-06 17:07 | 37.49863 | 23.48956 | 17098 ft | 330 kts | 80° |
| 2026-05-06 17:08 | 37.50080 | 23.51819 | 16672 ft | 327 kts | 80° |
| 2026-05-06 17:08 | 37.50293 | 23.54655 | 16248 ft | 324 kts | 80° |
| 2026-05-06 17:08 | 37.50506 | 23.57458 | 15827 ft | 321 kts | 80° |
| 2026-05-06 17:08 | 37.50715 | 23.60250 | 15414 ft | 318 kts | 81° |
| 2026-05-06 17:09 | 37.50918 | 23.63006 | 14998 ft | 315 kts | 81° |
| 2026-05-06 17:09 | 37.51123 | 23.65737 | 14587 ft | 312 kts | 81° |
| 2026-05-06 17:09 | 37.51322 | 23.68408 | 14183 ft | 309 kts | 81° |
| 2026-05-06 17:09 | 37.51523 | 23.71120 | 13764 ft | 305 kts | 81° |
| 2026-05-06 17:10 | 37.51717 | 23.73770 | 13345 ft | 302 kts | 81° |
| 2026-05-06 17:10 | 37.51911 | 23.76389 | 12956 ft | 300 kts | 81° |
| 2026-05-06 17:10 | 37.52101 | 23.78966 | 12568 ft | 299 kts | 81° |
| 2026-05-06 17:10 | 37.52292 | 23.81575 | 12179 ft | 299 kts | 81° |
| 2026-05-06 17:11 | 37.52481 | 23.84188 | 11787 ft | 299 kts | 81° |
| 2026-05-06 17:11 | 37.52671 | 23.86794 | 11396 ft | 298 kts | 81° |
| 2026-05-06 17:11 | 37.52860 | 23.89389 | 11007 ft | 297 kts | 81° |
| 2026-05-06 17:11 | 37.53047 | 23.91971 | 10619 ft | 296 kts | 81° |
| 2026-05-06 17:12 | 37.53231 | 23.94542 | 10236 ft | 294 kts | 82° |
| 2026-05-06 17:12 | 37.53414 | 23.97104 | 9839 ft | 292 kts | 82° |
| 2026-05-06 17:12 | 37.53595 | 23.99643 | 9441 ft | 290 kts | 82° |
| 2026-05-06 17:12 | 37.53775 | 24.02161 | 9059 ft | 288 kts | 82° |
| 2026-05-06 17:13 | 37.53954 | 24.04669 | 8684 ft | 286 kts | 82° |
| 2026-05-06 17:13 | 37.54131 | 24.07164 | 8310 ft | 285 kts | 82° |
| 2026-05-06 17:13 | 37.54307 | 24.09650 | 7937 ft | 284 kts | 82° |
| 2026-05-06 17:13 | 37.54481 | 24.12122 | 7569 ft | 283 kts | 82° |
| 2026-05-06 17:14 | 37.54654 | 24.14578 | 7197 ft | 281 kts | 82° |
| 2026-05-06 17:14 | 37.54823 | 24.16996 | 6833 ft | 280 kts | 82° |
| 2026-05-06 17:14 | 37.54993 | 24.19431 | 6466 ft | 279 kts | 82° |
| 2026-05-06 17:14 | 37.55162 | 24.21859 | 6088 ft | 277 kts | 82° |
| 2026-05-06 17:15 | 37.55331 | 24.24277 | 5721 ft | 275 kts | 82° |
| 2026-05-06 17:15 | 37.55801 | 24.26569 | 5288 ft | 270 kts | 60° |
| 2026-05-06 17:15 | 37.56984 | 24.28321 | 5040 ft | 254 kts | 36° |
| 2026-05-06 17:15 | 37.58476 | 24.29247 | 5042 ft | 230 kts | 14° |
| 2026-05-06 17:16 | 37.60022 | 24.29403 | 5050 ft | 221 kts | 355° |
| 2026-05-06 17:16 | 37.61566 | 24.29225 | 5093 ft | 227 kts | 354° |
| 2026-05-06 17:16 | 37.63167 | 24.29063 | 5071 ft | 232 kts | 354° |
| 2026-05-06 17:16 | 37.64782 | 24.28901 | 5073 ft | 234 kts | 354° |
| 2026-05-06 17:17 | 37.66398 | 24.28730 | 5087 ft | 233 kts | 354° |
| 2026-05-06 17:17 | 37.68010 | 24.28552 | 5082 ft | 233 kts | 354° |
| 2026-05-06 17:17 | 37.69626 | 24.28373 | 5071 ft | 233 kts | 354° |
| 2026-05-06 17:17 | 37.71246 | 24.28200 | 5065 ft | 234 kts | 354° |
| 2026-05-06 17:18 | 37.72869 | 24.28027 | 5058 ft | 234 kts | 354° |
| 2026-05-06 17:18 | 37.74492 | 24.27852 | 5066 ft | 234 kts | 354° |
| 2026-05-06 17:18 | 37.76113 | 24.27678 | 5063 ft | 234 kts | 354° |
| 2026-05-06 17:18 | 37.77715 | 24.27506 | 5068 ft | 234 kts | 354° |
| 2026-05-06 17:19 | 37.79332 | 24.27331 | 5067 ft | 233 kts | 354° |
| 2026-05-06 17:19 | 37.80951 | 24.27157 | 5065 ft | 233 kts | 354° |
| 2026-05-06 17:19 | 37.82569 | 24.26982 | 5059 ft | 233 kts | 354° |
| 2026-05-06 17:19 | 37.84184 | 24.26808 | 5072 ft | 233 kts | 354° |
| 2026-05-06 17:20 | 37.85804 | 24.26633 | 5072 ft | 233 kts | 354° |
| 2026-05-06 17:20 | 37.87423 | 24.26458 | 5072 ft | 234 kts | 354° |
| 2026-05-06 17:20 | 37.89041 | 24.26283 | 5065 ft | 234 kts | 354° |
| 2026-05-06 17:20 | 37.90665 | 24.26107 | 5069 ft | 234 kts | 354° |
| 2026-05-06 17:21 | 37.92286 | 24.25932 | 5069 ft | 234 kts | 354° |
| 2026-05-06 17:21 | 37.93908 | 24.25756 | 5072 ft | 234 kts | 354° |
| 2026-05-06 17:21 | 37.95529 | 24.25581 | 5069 ft | 234 kts | 354° |
| 2026-05-06 17:21 | 37.97127 | 24.25408 | 5060 ft | 234 kts | 354° |
| 2026-05-06 17:22 | 37.98737 | 24.25234 | 5063 ft | 227 kts | 354° |
| 2026-05-06 17:22 | 38.00236 | 24.24861 | 5021 ft | 216 kts | 338° |
| 2026-05-06 17:22 | 38.01581 | 24.24081 | 5054 ft | 213 kts | 335° |
| 2026-05-06 17:22 | 38.02925 | 24.23339 | 5073 ft | 210 kts | 336° |
| 2026-05-06 17:23 | 38.04274 | 24.22609 | 5072 ft | 212 kts | 336° |
| 2026-05-06 17:23 | 38.05636 | 24.21855 | 5066 ft | 214 kts | 335° |
| 2026-05-06 17:23 | 38.06888 | 24.20762 | 4983 ft | 229 kts | 321° |
| 2026-05-06 17:23 | 38.08104 | 24.19431 | 4853 ft | 226 kts | 320° |
| 2026-05-06 17:24 | 38.09240 | 24.18145 | 4631 ft | 215 kts | 315° |
| 2026-05-06 17:24 | 38.09884 | 24.16454 | 4367 ft | 215 kts | 283° |
| 2026-05-06 17:24 | 38.10043 | 24.14578 | 4247 ft | 214 kts | 276° |
| 2026-05-06 17:24 | 38.10181 | 24.12674 | 4094 ft | 218 kts | 277° |
| 2026-05-06 17:25 | 38.10303 | 24.10754 | 3902 ft | 219 kts | 272° |
| 2026-05-06 17:25 | 38.09827 | 24.08946 | 3616 ft | 224 kts | 237° |
| 2026-05-06 17:25 | 38.08673 | 24.07635 | 3467 ft | 222 kts | 217° |
| 2026-05-06 17:25 | 38.07479 | 24.06548 | 3314 ft | 196 kts | 217° |
| 2026-05-06 17:26 | 38.06482 | 24.05581 | 3163 ft | 168 kts | 219° |
| 2026-05-06 17:26 | 38.05550 | 24.04674 | 2962 ft | 172 kts | 218° |
| 2026-05-06 17:26 | 38.04609 | 24.03775 | 2746 ft | 161 kts | 217° |
| 2026-05-06 17:26 | 38.03768 | 24.02976 | 2536 ft | 141 kts | 217° |
| 2026-05-06 17:27 | 38.03027 | 24.02269 | 2361 ft | 128 kts | 217° |
| 2026-05-06 17:27 | 38.02333 | 24.01608 | 2195 ft | 122 kts | 217° |
| 2026-05-06 17:27 | 38.01664 | 24.00969 | 2045 ft | 122 kts | 217° |
| 2026-05-06 17:27 | 38.00984 | 24.00314 | 1888 ft | 122 kts | 217° |
| 2026-05-06 17:28 | 38.00301 | 23.99662 | 1724 ft | 123 kts | 217° |
| 2026-05-06 17:28 | 37.99616 | 23.99008 | 1557 ft | 123 kts | 217° |
| 2026-05-06 17:28 | 37.98933 | 23.98352 | 1395 ft | 123 kts | 218° |
| 2026-05-06 17:28 | 37.98250 | 23.97692 | 1230 ft | 123 kts | 217° |
| 2026-05-06 17:29 | 37.97568 | 23.97046 | 1058 ft | 124 kts | 217° |
| 2026-05-06 17:29 | 37.96869 | 23.96377 | 886 ft | 127 kts | 217° |
| 2026-05-06 17:29 | 37.96156 | 23.95700 | 705 ft | 127 kts | 217° |
| 2026-05-06 17:29 | 37.95448 | 23.95040 | 513 ft | 127 kts | 218° |
| 2026-05-06 17:30 | 37.94748 | 23.94363 | 356 ft | 127 kts | 218° |
| 2026-05-06 17:30 | 37.94064 | 23.93706 | 295 ft | 114 kts | 217° |
| 2026-05-06 17:30 | 37.93570 | 23.93240 | 286 ft | 45 kts | 217° |
| 2026-05-06 17:30 | 37.93410 | 23.93151 | 287 ft | 23 kts | 189° |
| 2026-05-06 17:31 | 37.93274 | 23.93144 | 294 ft | 12 kts | 152° |
| 2026-05-06 17:31 | 37.93260 | 23.93218 | 295 ft | 8 kts | 58° |
| 2026-05-06 17:31 | 37.93310 | 23.93272 | 296 ft | 10 kts | 36° |
| 2026-05-06 17:31 | 37.93364 | 23.93322 | 296 ft | 9 kts | 36° |
| 2026-05-06 17:32 | 37.93426 | 23.93383 | 296 ft | 13 kts | 38° |
| 2026-05-06 17:32 | 37.93495 | 23.93449 | 298 ft | 12 kts | 36° |
| 2026-05-06 17:32 | 37.93566 | 23.93516 | 296 ft | 13 kts | 37° |
| 2026-05-06 17:32 | 37.93640 | 23.93585 | 297 ft | 13 kts | 37° |
| 2026-05-06 17:33 | 37.93711 | 23.93655 | 296 ft | 13 kts | 38° |
| 2026-05-06 17:33 | 37.93780 | 23.93719 | 297 ft | 12 kts | 36° |
| 2026-05-06 17:33 | 37.93846 | 23.93780 | 296 ft | 12 kts | 36° |
| 2026-05-06 17:33 | 37.93870 | 23.93803 | 296 ft | 0 kts | 37° |
| 2026-05-06 17:34 | 37.93892 | 23.93824 | 297 ft | 7 kts | 37° |
| 2026-05-06 17:34 | 37.93933 | 23.93863 | 296 ft | 8 kts | 37° |
| 2026-05-06 17:34 | 37.93987 | 23.93915 | 297 ft | 13 kts | 37° |
| 2026-05-06 17:34 | 37.94062 | 23.93987 | 300 ft | 13 kts | 37° |
| 2026-05-06 17:35 | 37.94135 | 23.94055 | 297 ft | 13 kts | 35° |
| 2026-05-06 17:35 | 37.94204 | 23.94119 | 300 ft | 12 kts | 36° |
| 2026-05-06 17:35 | 37.94270 | 23.94181 | 299 ft | 11 kts | 38° |